Main page
METAR-TAF:

METAR-TAF

Airports :

Rouen Airport

Rouen, France

latitude: 49-23N, longitude: 001-11E, elevation: 157 m

Current weather observation

The report was made 39 minutes ago, at 20:00 UTC
Wind 6 kt from the North/Northeast
Temperature 15°C
Humidity 59%
Pressure 1029 hPa
Visibility 10 km or more
no clouds below 1500 m and no cumulonimbus

METAR: LFOP 222000Z AUTO 02006KT CAVOK 15/07 Q1029 NOSIG

Time: 22:39 (20:39 UTC)

Forecast

The report was made 3 hours and 39 minutes ago, at 17:00 UTC
Forecast valid from 22 at 18 UTC to 23 at 18 UTC
Wind 12 kt from the North
Visibility 10 km or more
no clouds below 1500 m and no cumulonimbus
Becoming
from 22 at 19 UTC to 22 at 22 UTC
Wind 2 kt from variable directions

TAF: LFOP 221700Z 2218/2318 35012KT CAVOK BECMG 2219/2222 VRB02KT

Weather observations and forecasts of more than 4000 airports (METAR and TAF reports).

The available stations are represented by yellow and red dots on the map.

Hover mouse over dot to see the name of the station.

Then click to see weather observations and forecasts.

To change the map : click on the green buttons with a black cross to zoom in, on the green button with a dash to zoom out, or on the green arrows for adjacent maps.


METAR-TAF: